Change the Weather History Date:

Wednesday, December 5, 2012

  Actual Average (KGAF) Record (KGAF)
Temperature  
Mean Temperature 24 °F -  
Max Temperature 37 °F 25 °F 46 °F (1988)
Min Temperature 10 °F 7 °F -22 °F (1964)
Degree Days  
Heating Degree Days 42    
Moisture  
Dew Point 19 °F    
Average Humidity 83    
Maximum Humidity 100    
Minimum Humidity 69    
Precipitation  
Precipitation 0.00 in - - ()
Sea Level Pressure  
Sea Level Pressure 29.85 in    
Wind  
Wind Speed 18 mph (South)    
Max Wind Speed 30 mph    
Max Gust Speed 38 mph    
Visibility 10 miles    
Events      
Averages and records for this station are not official NWS values.
T = Trace of Precipitation, MM = Missing Value Source: NWS Daily Summary

Daily Weather History Graph

Daily Weather History Graph

Search for Another Location

Airport or City:

Trip Planner

Search our weather history database for the weather conditions in past years. The results will help you decide how hot, cold, wet, or windy it might be!

Date:

Astronomy

Dec. 05, 2012 Rise Set
Actual Time 8:09 AM CST 4:35 PM CST
Civil Twilight 7:32 AM CST 5:11 PM CST
Nautical Twilight 6:52 AM CST 5:52 PM CST
Astronomical Twilight 6:14 AM CST 6:30 PM CST
Moon 11:53 PM CST (12/5) 12:09 PM CST (12/5)
Length of Visible Light 9h 39m
Length of Day
8h 25m
Waning Gibbous, 59% of the Moon is Illuminated
Dec 5
Waning Gibbous
Dec 6
Last Quarter
Dec 13
New
Dec 19
First Quarter
Dec 28
Full

Hourly Weather History & Observations

Time (CST) Temp. Windchill Dew Point Humidity Pressure Visibility Wind Dir Wind Speed Gust Speed Precip Events Conditions
12:15 AM 10.4 °F -4.8 °F 8.6 °F 92% 30.31 in 10.0 mi SSE 12.7 mph - N/A   Clear
12:35 AM 10.4 °F -4.8 °F 10.4 °F 100% 30.31 in 10.0 mi SSE 12.7 mph - N/A   Clear
12:55 AM 10.4 °F -5.4 °F 10.4 °F 100% 30.29 in 10.0 mi SSE 13.8 mph - N/A   Clear
1:15 AM 10.4 °F -4.8 °F 10.4 °F 100% 30.28 in 10.0 mi SSE 12.7 mph - N/A   Partly Cloudy
1:55 AM 12.2 °F -2.5 °F 10.4 °F 92% 30.26 in 10.0 mi South 12.7 mph - N/A   Overcast
2:15 AM 12.2 °F -3.7 °F 10.4 °F 92% 30.25 in 10.0 mi SSE 15.0 mph - N/A   Overcast
2:35 AM 12.2 °F -3.7 °F 12.2 °F 100% 30.24 in 10.0 mi SSE 15.0 mph - N/A   Overcast
2:55 AM 12.2 °F -3.7 °F 12.2 °F 100% 30.24 in 10.0 mi SSE 15.0 mph - N/A   Overcast
3:15 AM 14.0 °F -1.4 °F 12.2 °F 93% 30.23 in 10.0 mi SSE 15.0 mph - N/A   Overcast
3:35 AM 14.0 °F -2.5 °F 12.2 °F 93% 30.22 in 10.0 mi SSE 17.3 mph - N/A   Overcast
3:55 AM 14.0 °F -2.0 °F 12.2 °F 93% 30.20 in 10.0 mi SSE 16.1 mph - N/A   Overcast
4:15 AM 14.0 °F -2.0 °F 14.0 °F 100% 30.18 in 10.0 mi SSE 16.1 mph - N/A   Overcast
4:35 AM 14.0 °F -3.0 °F 14.0 °F 100% 30.16 in 10.0 mi SSE 18.4 mph - N/A   Overcast
4:55 AM 14.0 °F -3.9 °F 14.0 °F 100% 30.14 in 10.0 mi SSE 20.7 mph 25.3 mph N/A   Mostly Cloudy
5:15 AM 14.0 °F -3.4 °F 14.0 °F 100% 30.13 in 10.0 mi SSE 19.6 mph 24.2 mph N/A   Clear
5:35 AM 14.0 °F -4.3 °F 14.0 °F 100% 30.11 in 10.0 mi SSE 21.9 mph 26.5 mph N/A   Clear
5:55 AM 14.0 °F -2.5 °F 14.0 °F 100% 30.10 in 10.0 mi SSE 17.3 mph 24.2 mph N/A   Clear
6:15 AM 15.8 °F -0.2 °F 14.0 °F 93% 30.11 in 10.0 mi South 17.3 mph - N/A   Clear
6:35 AM 15.8 °F -0.2 °F 14.0 °F 93% 30.11 in 10.0 mi SSE 17.3 mph - N/A   Clear
6:55 AM 15.8 °F -1.5 °F 14.0 °F 93% 30.09 in 10.0 mi SSE 20.7 mph 24.2 mph N/A   Clear
8:35 AM 15.8 °F -1.5 °F 14.0 °F 93% 30.02 in 10.0 mi SSE 20.7 mph 29.9 mph N/A   Clear
8:55 AM 15.8 °F -2.3 °F 14.0 °F 93% 30.00 in 10.0 mi SSE 23.0 mph 28.8 mph N/A   Clear
9:15 AM 15.8 °F -1.9 °F 14.0 °F 93% 29.98 in 10.0 mi SSE 21.9 mph 28.8 mph N/A   Clear
9:35 AM 17.6 °F 1.3 °F 15.8 °F 93% 29.98 in 10.0 mi SSE 19.6 mph 25.3 mph N/A   Clear
9:55 AM 19.4 °F 2.1 °F 15.8 °F 86% 29.97 in 10.0 mi South 24.2 mph 31.1 mph N/A   Clear
10:15 AM 19.4 °F 2.1 °F 15.8 °F 86% 29.95 in 10.0 mi SSE 24.2 mph 31.1 mph N/A   Clear
10:35 AM 21.2 °F 4.5 °F 15.8 °F 80% 29.94 in 10.0 mi South 24.2 mph 31.1 mph N/A   Clear
10:55 AM 23.0 °F 6.9 °F 17.6 °F 80% 29.93 in 10.0 mi South 24.2 mph 32.2 mph N/A   Clear
11:15 AM 23.0 °F 6.9 °F 17.6 °F 80% 29.90 in 10.0 mi South 24.2 mph 29.9 mph N/A   Clear
11:35 AM 24.8 °F 9.0 °F 17.6 °F 74% 29.88 in 10.0 mi SSE 25.3 mph 29.9 mph N/A   Clear
11:55 AM 24.8 °F 8.4 °F 19.4 °F 80% 29.85 in 10.0 mi South 27.6 mph 32.2 mph N/A   Clear
12:15 PM 24.8 °F 7.9 °F 19.4 °F 80% 29.82 in 10.0 mi SSE 29.9 mph 36.8 mph N/A   Clear
12:35 PM 26.6 °F 12.0 °F 19.4 °F 74% 29.82 in 10.0 mi South 23.0 mph 28.8 mph N/A   Partly Cloudy
1:15 PM 26.6 °F 11.7 °F 19.4 °F 74% 29.80 in 10.0 mi South 24.2 mph 29.9 mph N/A   Mostly Cloudy
1:35 PM 26.6 °F 12.4 °F 19.4 °F 74% 29.78 in 10.0 mi South 21.9 mph - N/A   Mostly Cloudy
1:55 PM 28.4 °F 14.1 °F 19.4 °F 69% 29.76 in 10.0 mi South 24.2 mph 31.1 mph N/A   Partly Cloudy
2:15 PM 28.4 °F 14.4 °F 19.4 °F 69% 29.73 in 10.0 mi South 23.0 mph 34.5 mph N/A   Clear
2:35 PM 28.4 °F 15.1 °F 19.4 °F 69% 29.74 in 10.0 mi South 20.7 mph 33.4 mph N/A   Clear
2:55 PM 28.4 °F 13.8 °F 21.2 °F 74% 29.72 in 10.0 mi South 25.3 mph - N/A   Clear
3:15 PM 28.4 °F 14.1 °F 21.2 °F 74% 29.70 in 10.0 mi South 24.2 mph 29.9 mph N/A   Clear
3:35 PM 28.4 °F 14.4 °F 21.2 °F 74% 29.68 in 10.0 mi South 23.0 mph 33.4 mph N/A   Clear
3:55 PM 28.4 °F 17.0 °F 19.4 °F 69% 29.70 in 10.0 mi South 15.0 mph 27.6 mph N/A   Clear
4:15 PM 28.4 °F 16.2 °F 21.2 °F 74% 29.68 in 10.0 mi South 17.3 mph 20.7 mph N/A   Clear
4:35 PM 28.4 °F 14.4 °F 21.2 °F 74% 29.66 in 10.0 mi South 23.0 mph 29.9 mph N/A   Mostly Cloudy
4:55 PM 28.4 °F 14.4 °F 21.2 °F 74% 29.64 in 10.0 mi South 23.0 mph 31.1 mph N/A   Overcast
5:15 PM 28.4 °F 16.2 °F 21.2 °F 74% 29.64 in 10.0 mi South 17.3 mph 24.2 mph N/A   Overcast
5:35 PM 28.4 °F 14.4 °F 23.0 °F 80% 29.62 in 10.0 mi South 23.0 mph 28.8 mph N/A   Overcast
5:55 PM 30.2 °F 16.5 °F 23.0 °F 75% 29.60 in 10.0 mi South 24.2 mph 31.1 mph N/A   Overcast
6:15 PM 30.2 °F 16.5 °F 23.0 °F 75% 29.59 in 10.0 mi South 24.2 mph 34.5 mph N/A   Overcast
6:35 PM 30.2 °F 18.9 °F 23.0 °F 75% 29.59 in 10.0 mi South 16.1 mph 32.2 mph N/A   Overcast
6:55 PM 30.2 °F 21.3 °F 23.0 °F 75% 29.58 in 10.0 mi SSW 10.4 mph 18.4 mph N/A   Overcast
7:15 PM 32.0 °F 21.6 °F 23.0 °F 69% 29.61 in 10.0 mi South 15.0 mph 19.6 mph N/A   Overcast
7:35 PM 32.0 °F 22.5 °F 23.0 °F 69% 29.60 in 10.0 mi South 12.7 mph - N/A   Overcast
7:55 PM 32.0 °F 21.2 °F 24.8 °F 75% 29.58 in 10.0 mi South 16.1 mph - N/A   Overcast
8:15 PM 32.0 °F 22.1 °F 24.8 °F 75% 29.58 in 10.0 mi South 13.8 mph 19.6 mph N/A   Mostly Cloudy
8:35 PM 32.0 °F 18.9 °F 24.8 °F 75% 29.57 in 10.0 mi South 24.2 mph 27.6 mph N/A   Partly Cloudy
8:55 PM 32.0 °F 19.8 °F 24.8 °F 75% 29.56 in 10.0 mi SSW 20.7 mph 28.8 mph N/A   Partly Cloudy
9:15 PM 33.8 °F 23.2 °F 24.8 °F 70% 29.55 in 10.0 mi South 17.3 mph 25.3 mph N/A   Mostly Cloudy
9:35 PM 33.8 °F 25.3 °F 26.6 °F 75% 29.54 in 10.0 mi South 11.5 mph - N/A   Mostly Cloudy
9:55 PM 32.0 °F 23.0 °F 26.6 °F 80% 29.53 in 10.0 mi South 11.5 mph - N/A   Scattered Clouds
10:15 PM 33.8 °F 26.4 °F 26.6 °F 75% 29.52 in 10.0 mi SSE 9.2 mph - N/A   Mostly Cloudy
10:35 PM 37.4 °F 28.9 °F 28.4 °F 70% 29.51 in 10.0 mi SW 13.8 mph 24.2 mph N/A   Mostly Cloudy
10:55 PM 37.4 °F 26.9 °F 28.4 °F 70% 29.50 in 10.0 mi SW 20.7 mph 27.6 mph N/A   Clear
11:15 PM 37.4 °F 26.9 °F 28.4 °F 70% 29.49 in 10.0 mi SW 20.7 mph 27.6 mph N/A   Clear
11:35 PM 37.4 °F 26.9 °F 30.2 °F 75% 29.49 in 10.0 mi SW 20.7 mph 34.5 mph N/A   Clear
11:55 PM 37.4 °F 26.6 °F 30.2 °F 75% 29.49 in 10.0 mi WSW 21.9 mph 38.0 mph N/A   Clear